createdAt,value
2022-07-30T00:00:50.427Z,0
2022-07-30T00:01:59.591Z,0
2022-07-30T00:03:07.779Z,0
2022-07-30T00:04:16.956Z,0
2022-07-30T00:05:26.126Z,0
2022-07-30T00:06:34.334Z,0
2022-07-30T00:07:42.512Z,0
2022-07-30T00:08:51.679Z,0
2022-07-30T00:10:00.861Z,0
2022-07-30T00:11:10.043Z,0
2022-07-30T00:12:19.200Z,0
2022-07-30T00:13:28.382Z,0
2022-07-30T00:14:37.557Z,0
2022-07-30T00:15:46.719Z,0
2022-07-30T00:16:55.897Z,0
2022-07-30T00:18:05.074Z,0
2022-07-30T00:19:14.250Z,0
2022-07-30T00:20:22.438Z,0
2022-07-30T00:21:30.643Z,0
2022-07-30T00:22:39.796Z,0
2022-07-30T00:23:48.968Z,0
2022-07-30T00:24:58.140Z,0
2022-07-30T00:26:07.318Z,0
2022-07-30T00:27:16.498Z,0
2022-07-30T00:28:25.669Z,0
2022-07-30T00:29:34.843Z,0
2022-07-30T00:30:44.000Z,0
2022-07-30T00:31:53.181Z,0
2022-07-30T00:33:02.361Z,0
2022-07-30T00:34:11.525Z,0
2022-07-30T00:35:20.700Z,0
2022-07-30T00:36:28.918Z,0
2022-07-30T00:37:38.059Z,0
2022-07-30T00:38:47.244Z,0
2022-07-30T00:39:56.413Z,0
2022-07-30T00:41:05.577Z,0
2022-07-30T00:42:14.748Z,0
2022-07-30T00:43:23.923Z,0
2022-07-30T00:44:33.089Z,0
2022-07-30T00:45:42.278Z,0
2022-07-30T00:46:51.439Z,0
2022-07-30T00:48:00.614Z,0
2022-07-30T00:49:09.775Z,0
2022-07-30T00:50:18.943Z,0
2022-07-30T00:51:27.142Z,0
2022-07-30T00:52:36.338Z,0
2022-07-30T00:53:45.493Z,0
2022-07-30T00:54:54.660Z,0
2022-07-30T00:56:03.827Z,0
2022-07-30T00:57:13.011Z,0
2022-07-30T00:58:22.184Z,0
2022-07-30T00:59:31.347Z,0
2022-07-30T01:00:40.523Z,0
2022-07-30T01:01:49.692Z,0
2022-07-30T01:02:58.883Z,0
2022-07-30T01:04:08.052Z,0
2022-07-30T01:05:17.216Z,0
2022-07-30T01:06:25.403Z,0
2022-07-30T01:07:34.570Z,0
2022-07-30T01:08:43.752Z,0
2022-07-30T01:09:52.919Z,0
2022-07-30T01:11:02.103Z,0
2022-07-30T01:12:11.257Z,0
2022-07-30T01:13:20.433Z,0
2022-07-30T01:14:29.613Z,0
2022-07-30T01:15:38.833Z,0
2022-07-30T01:16:47.964Z,0
2022-07-30T01:17:57.124Z,0
2022-07-30T01:19:06.298Z,0
2022-07-30T01:20:15.474Z,0
2022-07-30T01:21:23.656Z,0
2022-07-30T01:22:32.833Z,0
2022-07-30T01:23:42.001Z,0
2022-07-30T01:24:51.173Z,0
2022-07-30T01:26:00.349Z,0
2022-07-30T01:27:09.515Z,0
2022-07-30T01:28:18.694Z,0
2022-07-30T01:29:27.867Z,0
2022-07-30T01:30:37.049Z,0
2022-07-30T01:31:46.209Z,0
2022-07-30T01:32:55.392Z,0
2022-07-30T01:34:04.583Z,0
2022-07-30T01:35:13.726Z,0
2022-07-30T01:36:21.932Z,0
2022-07-30T01:37:31.133Z,0
2022-07-30T01:38:40.259Z,0
2022-07-30T01:39:49.430Z,0
2022-07-30T01:40:58.612Z,0
2022-07-30T01:42:07.782Z,0
2022-07-30T01:43:16.959Z,0
2022-07-30T01:44:26.117Z,0
2022-07-30T01:45:35.313Z,0
2022-07-30T01:46:44.472Z,0
2022-07-30T01:47:53.641Z,0
2022-07-30T01:49:02.810Z,0
2022-07-30T01:50:12.001Z,0
2022-07-30T01:51:20.176Z,0
2022-07-30T01:52:29.347Z,0
2022-07-30T01:53:38.528Z,0
2022-07-30T01:54:47.695Z,0
2022-07-30T01:55:56.879Z,0
2022-07-30T01:57:06.028Z,0
2022-07-30T01:58:15.222Z,0
2022-07-30T01:59:24.380Z,0
2022-07-30T02:00:33.564Z,0
2022-07-30T02:01:42.724Z,0
2022-07-30T02:02:51.906Z,0
2022-07-30T02:04:01.078Z,0
2022-07-30T02:05:10.256Z,0
2022-07-30T02:06:18.439Z,0
2022-07-30T02:07:27.599Z,0
2022-07-30T02:08:36.782Z,0
2022-07-30T02:09:45.953Z,0
2022-07-30T02:10:55.125Z,0
2022-07-30T02:12:04.303Z,0
2022-07-30T02:13:13.469Z,0
2022-07-30T02:14:22.636Z,0
2022-07-30T02:15:31.817Z,0
2022-07-30T02:16:40.981Z,0
2022-07-30T02:17:50.162Z,0
2022-07-30T02:18:59.329Z,0
2022-07-30T02:20:08.512Z,0
2022-07-30T02:21:16.704Z,0
2022-07-30T02:22:24.889Z,0
2022-07-30T02:23:34.061Z,0
2022-07-30T02:24:42.254Z,0
2022-07-30T02:25:50.443Z,0
2022-07-30T02:26:59.607Z,0
2022-07-30T02:28:08.786Z,0
2022-07-30T02:29:17.963Z,0
2022-07-30T02:30:27.124Z,0
2022-07-30T02:31:36.302Z,0
2022-07-30T02:32:45.480Z,0
2022-07-30T02:33:54.661Z,0
2022-07-30T02:35:03.827Z,0
2022-07-30T02:36:12.990Z,0
2022-07-30T02:37:22.175Z,0
2022-07-30T02:38:31.337Z,0
2022-07-30T02:39:40.516Z,0
2022-07-30T02:40:48.708Z,0
2022-07-30T02:41:57.878Z,0
2022-07-30T02:43:07.050Z,0
2022-07-30T02:44:16.217Z,0
2022-07-30T02:45:25.390Z,0
2022-07-30T02:46:34.564Z,0
2022-07-30T02:47:43.734Z,0
2022-07-30T02:48:51.933Z,0
2022-07-30T02:50:00.134Z,0
2022-07-30T02:51:09.298Z,0
2022-07-30T02:52:18.462Z,0
2022-07-30T02:53:27.631Z,0
2022-07-30T02:54:36.800Z,0
2022-07-30T02:55:44.994Z,0
2022-07-30T02:56:53.190Z,0
2022-07-30T02:58:02.353Z,0
2022-07-30T02:59:11.532Z,0
2022-07-30T03:00:20.696Z,0
2022-07-30T03:01:29.867Z,0
2022-07-30T03:02:39.055Z,0
2022-07-30T03:03:48.232Z,0
2022-07-30T03:04:57.396Z,0
2022-07-30T03:06:06.559Z,0
2022-07-30T03:07:15.745Z,0
2022-07-30T03:08:24.911Z,0
2022-07-30T03:09:34.079Z,0
2022-07-30T03:10:43.250Z,0
2022-07-30T03:11:51.443Z,0
2022-07-30T03:13:00.614Z,0
2022-07-30T03:14:09.784Z,0
2022-07-30T03:15:18.958Z,0
2022-07-30T03:16:28.134Z,0
2022-07-30T03:17:37.300Z,0
2022-07-30T03:18:46.481Z,0
2022-07-30T03:19:55.641Z,0
2022-07-30T03:21:04.812Z,0
2022-07-30T03:22:13.983Z,0
2022-07-30T03:23:23.166Z,0
2022-07-30T03:24:32.350Z,0
2022-07-30T03:25:41.508Z,0
2022-07-30T03:26:49.694Z,0
2022-07-30T03:27:58.870Z,0
2022-07-30T03:29:08.048Z,0
2022-07-30T03:30:17.217Z,0
2022-07-30T03:31:26.383Z,0
2022-07-30T03:32:35.548Z,0
2022-07-30T03:33:44.737Z,0
2022-07-30T03:34:53.903Z,0
2022-07-30T03:36:03.064Z,0
2022-07-30T03:37:12.244Z,0
2022-07-30T03:38:21.435Z,0
2022-07-30T03:39:29.608Z,0
2022-07-30T03:40:38.788Z,0
2022-07-30T03:41:47.980Z,0
2022-07-30T03:44:06.307Z,0
2022-07-30T03:45:15.467Z,0
2022-07-30T03:46:24.656Z,0
2022-07-30T03:47:33.820Z,0
2022-07-30T03:48:42.988Z,0
2022-07-30T03:49:52.159Z,0
2022-07-30T03:51:01.333Z,5
2022-07-30T03:52:10.513Z,5
2022-07-30T03:53:19.677Z,5
2022-07-30T03:54:27.880Z,5
2022-07-30T03:55:37.068Z,5
2022-07-30T03:56:46.215Z,5
2022-07-30T03:57:55.382Z,5
2022-07-30T03:59:04.560Z,5
2022-07-30T04:00:13.731Z,5
2022-07-30T04:01:22.905Z,5
2022-07-30T04:02:32.071Z,11
2022-07-30T04:03:41.255Z,11
2022-07-30T04:04:49.454Z,11
2022-07-30T04:05:57.632Z,11
2022-07-30T04:07:06.806Z,11
2022-07-30T04:08:14.997Z,11
2022-07-30T04:09:23.182Z,11
2022-07-30T04:10:32.370Z,11
2022-07-30T04:11:41.527Z,16
2022-07-30T04:12:50.700Z,16
2022-07-30T04:13:59.878Z,16
2022-07-30T04:15:09.064Z,16
2022-07-30T04:16:18.212Z,16
2022-07-30T04:17:27.389Z,16
2022-07-30T04:18:36.557Z,22
2022-07-30T04:19:45.735Z,22
2022-07-30T04:20:54.900Z,22
2022-07-30T04:22:04.075Z,22
2022-07-30T04:23:13.254Z,22
2022-07-30T04:24:21.434Z,28
2022-07-30T04:25:30.620Z,28
2022-07-30T04:26:39.789Z,28
2022-07-30T04:27:48.967Z,28
2022-07-30T04:28:58.133Z,33
2022-07-30T04:30:07.298Z,33
2022-07-30T04:31:16.465Z,39
2022-07-30T04:32:25.640Z,39
2022-07-30T04:33:34.817Z,39
2022-07-30T04:34:43.990Z,45
2022-07-30T04:35:53.160Z,45
2022-07-30T04:37:02.327Z,45
2022-07-30T04:38:11.505Z,50
2022-07-30T04:39:19.687Z,50
2022-07-30T04:40:28.874Z,50
2022-07-30T04:41:38.047Z,50
2022-07-30T04:42:46.249Z,50
2022-07-30T04:43:54.431Z,50
2022-07-30T04:45:03.610Z,50
2022-07-30T04:46:12.777Z,50
2022-07-30T04:47:21.942Z,56
2022-07-30T04:48:31.105Z,56
2022-07-30T04:49:40.284Z,56
2022-07-30T04:50:49.465Z,61
2022-07-30T04:51:57.668Z,61
2022-07-30T04:53:05.870Z,61
2022-07-30T04:54:15.022Z,61
2022-07-30T04:55:24.192Z,67
2022-07-30T04:56:33.382Z,67
2022-07-30T04:57:42.528Z,67
2022-07-30T04:58:51.715Z,67
2022-07-30T05:00:00.871Z,73
2022-07-30T05:01:10.055Z,73
2022-07-30T05:02:19.222Z,73
2022-07-30T05:03:28.399Z,73
2022-07-30T05:04:37.577Z,78
2022-07-30T05:05:46.740Z,78
2022-07-30T05:06:55.919Z,78
2022-07-30T05:08:04.129Z,84
2022-07-30T05:09:13.271Z,84
2022-07-30T05:10:22.445Z,84
2022-07-30T05:11:31.621Z,84
2022-07-30T05:12:40.789Z,84
2022-07-30T05:13:49.960Z,90
2022-07-30T05:14:59.143Z,90
2022-07-30T05:16:08.319Z,95
2022-07-30T05:17:17.489Z,101
2022-07-30T05:18:26.682Z,95
2022-07-30T05:19:35.830Z,101
2022-07-30T05:20:45.008Z,101
2022-07-30T05:21:54.175Z,101
2022-07-30T05:23:02.361Z,106
2022-07-30T05:24:11.531Z,106
2022-07-30T05:25:20.707Z,112
2022-07-30T05:26:29.871Z,112
2022-07-30T05:27:39.053Z,118
2022-07-30T05:28:48.227Z,118
2022-07-30T05:29:57.409Z,118
2022-07-30T05:31:06.581Z,118
2022-07-30T05:32:15.748Z,118
2022-07-30T05:33:24.915Z,118
2022-07-30T05:34:34.087Z,118
2022-07-30T05:35:43.270Z,118
2022-07-30T05:36:52.435Z,118
2022-07-30T05:38:00.621Z,118
2022-07-30T05:39:09.807Z,123
2022-07-30T05:40:18.961Z,123
2022-07-30T05:41:28.141Z,123
2022-07-30T05:42:37.316Z,123
2022-07-30T05:43:46.480Z,129
2022-07-30T05:44:55.657Z,129
2022-07-30T05:46:04.828Z,129
2022-07-30T05:47:14.001Z,129
2022-07-30T05:48:23.170Z,129
2022-07-30T05:49:32.347Z,129
2022-07-30T05:50:41.519Z,129
2022-07-30T05:51:50.695Z,135
2022-07-30T05:52:58.876Z,135
2022-07-30T05:54:08.050Z,135
2022-07-30T05:55:17.222Z,135
2022-07-30T05:56:26.396Z,135
2022-07-30T05:57:35.573Z,140
2022-07-30T05:58:44.748Z,140
2022-07-30T05:59:53.936Z,140
2022-07-30T06:01:03.118Z,140
2022-07-30T06:02:12.259Z,140
2022-07-30T06:03:21.445Z,146
2022-07-30T06:04:30.607Z,146
2022-07-30T06:05:39.784Z,146
2022-07-30T06:06:48.943Z,151
2022-07-30T06:07:57.131Z,151
2022-07-30T06:09:05.331Z,151
2022-07-30T06:10:13.521Z,151
2022-07-30T06:11:22.692Z,151
2022-07-30T06:12:31.869Z,151
2022-07-30T06:13:41.041Z,151
2022-07-30T06:14:49.228Z,151
2022-07-30T06:15:58.404Z,157
2022-07-30T06:17:06.583Z,157
2022-07-30T06:18:15.766Z,157
2022-07-30T06:19:24.934Z,163
2022-07-30T06:20:34.113Z,163
2022-07-30T06:21:43.288Z,163
2022-07-30T06:22:52.449Z,163
2022-07-30T06:24:01.625Z,163
2022-07-30T06:25:10.793Z,163
2022-07-30T06:26:19.974Z,163
2022-07-30T06:27:29.143Z,168
2022-07-30T06:28:38.315Z,168
2022-07-30T06:29:47.484Z,168
2022-07-30T06:30:56.668Z,168
2022-07-30T06:32:04.856Z,168
2022-07-30T06:33:14.021Z,168
2022-07-30T06:34:23.201Z,168
2022-07-30T06:35:32.383Z,174
2022-07-30T06:36:41.552Z,174
2022-07-30T06:37:50.727Z,174
2022-07-30T06:38:59.886Z,174
2022-07-30T06:40:09.060Z,174
2022-07-30T06:41:18.244Z,174
2022-07-30T06:42:27.430Z,174
2022-07-30T06:43:36.582Z,174
2022-07-30T06:44:45.794Z,174
2022-07-30T06:45:54.923Z,174
2022-07-30T06:47:03.108Z,174
2022-07-30T06:48:12.282Z,168
2022-07-30T06:49:21.454Z,174
2022-07-30T06:50:30.631Z,174
2022-07-30T06:51:39.804Z,180
2022-07-30T06:52:48.980Z,180
2022-07-30T06:53:58.141Z,180
2022-07-30T06:55:07.314Z,180
2022-07-30T06:56:16.485Z,185
2022-07-30T06:57:25.688Z,185
2022-07-30T06:58:34.837Z,185
2022-07-30T06:59:44.015Z,185
2022-07-30T07:00:53.181Z,185
2022-07-30T07:02:01.361Z,185
2022-07-30T07:03:10.533Z,185
2022-07-30T07:04:19.716Z,185
2022-07-30T07:05:28.887Z,185
2022-07-30T07:06:38.060Z,185
2022-07-30T07:07:47.229Z,185
2022-07-30T07:08:56.411Z,185
2022-07-30T07:10:05.574Z,185
2022-07-30T07:11:14.749Z,185
2022-07-30T07:12:23.917Z,185
2022-07-30T07:13:33.090Z,185
2022-07-30T07:14:42.258Z,191
2022-07-30T07:15:51.447Z,196
2022-07-30T07:16:59.629Z,196
2022-07-30T07:18:08.796Z,202
2022-07-30T07:19:17.979Z,202
2022-07-30T07:20:27.146Z,202
2022-07-30T07:21:36.316Z,202
2022-07-30T07:22:45.489Z,202
2022-07-30T07:23:54.653Z,202
2022-07-30T07:25:03.837Z,202
2022-07-30T07:26:13.004Z,202
2022-07-30T07:27:22.175Z,202
2022-07-30T07:28:31.355Z,202
2022-07-30T07:29:40.548Z,208
2022-07-30T07:30:48.726Z,208
2022-07-30T07:31:57.896Z,208
2022-07-30T07:33:07.057Z,208
2022-07-30T07:34:16.236Z,208
2022-07-30T07:35:25.404Z,208
2022-07-30T07:36:34.596Z,208
2022-07-30T07:37:43.754Z,208
2022-07-30T07:38:52.929Z,208
2022-07-30T07:40:02.101Z,213
2022-07-30T07:41:11.265Z,230
2022-07-30T07:42:20.440Z,213
2022-07-30T07:43:29.615Z,219
2022-07-30T07:44:38.776Z,213
2022-07-30T07:45:46.984Z,213
2022-07-30T07:46:56.150Z,219
2022-07-30T07:48:05.316Z,213
2022-07-30T07:49:14.489Z,213
2022-07-30T07:50:23.693Z,213
2022-07-30T07:51:32.846Z,213
2022-07-30T07:52:42.002Z,219
2022-07-30T07:53:51.178Z,219
2022-07-30T07:55:00.349Z,219
2022-07-30T07:56:09.524Z,219
2022-07-30T07:57:18.695Z,219
2022-07-30T07:58:27.856Z,219
2022-07-30T07:59:37.038Z,219
2022-07-30T08:00:46.215Z,219
2022-07-30T08:01:54.396Z,219
2022-07-30T08:03:03.597Z,225
2022-07-30T08:04:12.753Z,225
2022-07-30T08:05:21.925Z,219
2022-07-30T08:06:31.087Z,225
2022-07-30T08:07:40.259Z,225
2022-07-30T08:08:49.431Z,225
2022-07-30T08:09:58.630Z,225
2022-07-30T08:11:07.780Z,225
2022-07-30T08:12:16.955Z,230
2022-07-30T08:13:26.124Z,230
2022-07-30T08:14:35.306Z,230
2022-07-30T08:15:44.472Z,230
2022-07-30T08:16:52.672Z,230
2022-07-30T08:18:01.843Z,230
2022-07-30T08:19:11.006Z,230
2022-07-30T08:20:20.188Z,225
2022-07-30T08:21:29.351Z,230
2022-07-30T08:22:38.522Z,230
2022-07-30T08:23:47.707Z,230
2022-07-30T08:24:56.877Z,230
2022-07-30T08:26:06.054Z,230
2022-07-30T08:27:15.219Z,230
2022-07-30T08:28:24.390Z,230
2022-07-30T08:29:33.557Z,230
2022-07-30T08:30:42.735Z,230
2022-07-30T08:31:50.931Z,236
2022-07-30T08:33:00.091Z,236
2022-07-30T08:34:09.268Z,230
2022-07-30T08:35:17.466Z,236
2022-07-30T08:36:25.645Z,236
2022-07-30T08:37:34.858Z,236
2022-07-30T08:38:43.998Z,236
2022-07-30T08:39:53.170Z,236
2022-07-30T08:41:02.341Z,236
2022-07-30T08:42:11.509Z,236
2022-07-30T08:43:20.677Z,236
2022-07-30T08:44:29.863Z,236
2022-07-30T08:45:39.036Z,236
2022-07-30T08:46:48.203Z,236
2022-07-30T08:47:57.376Z,236
2022-07-30T08:49:06.545Z,236
2022-07-30T08:50:15.725Z,236
2022-07-30T08:51:24.899Z,236
2022-07-30T08:52:34.067Z,236
2022-07-30T08:53:42.261Z,236
2022-07-30T08:54:51.423Z,241
2022-07-30T08:55:59.629Z,241
2022-07-30T08:57:07.810Z,241
2022-07-30T08:58:16.990Z,241
2022-07-30T08:59:26.157Z,241
2022-07-30T09:00:35.325Z,241
2022-07-30T09:01:44.503Z,241
2022-07-30T09:02:53.676Z,241
2022-07-30T09:04:02.849Z,247
2022-07-30T09:05:12.025Z,241
2022-07-30T09:06:21.200Z,241
2022-07-30T09:07:30.364Z,241
2022-07-30T09:08:39.545Z,241
2022-07-30T09:09:48.774Z,247
2022-07-30T09:10:57.888Z,247
2022-07-30T09:12:06.104Z,247
2022-07-30T09:13:15.248Z,247
2022-07-30T09:14:24.421Z,247
2022-07-30T09:15:33.587Z,247
2022-07-30T09:16:42.750Z,247
2022-07-30T09:17:51.932Z,247
2022-07-30T09:19:01.103Z,247
2022-07-30T09:20:10.293Z,247
2022-07-30T09:21:19.444Z,247
2022-07-30T09:22:28.613Z,253
2022-07-30T09:23:37.777Z,247
2022-07-30T09:24:46.956Z,253
2022-07-30T09:25:56.138Z,253
2022-07-30T09:27:04.333Z,253
2022-07-30T09:28:13.500Z,253
2022-07-30T09:29:22.667Z,253
2022-07-30T09:30:31.843Z,253
2022-07-30T09:31:41.019Z,247
2022-07-30T09:32:50.183Z,185
2022-07-30T09:33:59.362Z,258
2022-07-30T09:35:08.527Z,258
2022-07-30T09:36:17.705Z,253
2022-07-30T09:37:26.870Z,258
2022-07-30T09:38:36.044Z,258
2022-07-30T09:39:45.214Z,264
2022-07-30T09:40:54.397Z,264
2022-07-30T09:42:02.580Z,270
2022-07-30T09:43:11.760Z,264
2022-07-30T09:44:20.938Z,264
2022-07-30T09:45:29.134Z,264
2022-07-30T09:46:37.309Z,264
2022-07-30T09:47:46.479Z,270
2022-07-30T09:48:55.649Z,270
2022-07-30T09:50:04.852Z,270
2022-07-30T09:51:14.002Z,275
2022-07-30T09:52:23.171Z,281
2022-07-30T09:53:32.374Z,281
2022-07-30T09:54:41.507Z,281
2022-07-30T09:55:49.747Z,281
2022-07-30T09:56:58.906Z,281
2022-07-30T09:58:07.101Z,270
2022-07-30T09:59:16.239Z,219
2022-07-30T10:00:25.433Z,281
2022-07-30T10:01:34.595Z,281
2022-07-30T10:02:43.767Z,281
2022-07-30T10:03:52.958Z,281
2022-07-30T10:05:02.113Z,281
2022-07-30T10:06:11.313Z,281
2022-07-30T10:09:38.823Z,292
2022-07-30T10:11:57.144Z,286
2022-07-30T10:13:05.370Z,286
2022-07-30T10:14:13.555Z,286
2022-07-30T10:15:22.747Z,286
2022-07-30T10:16:31.878Z,286
2022-07-30T10:17:41.090Z,286
2022-07-30T10:18:50.218Z,292
2022-07-30T10:19:59.405Z,286
2022-07-30T10:21:08.590Z,286
2022-07-30T10:22:17.749Z,286
2022-07-30T10:23:26.909Z,286
2022-07-30T10:24:36.108Z,286
2022-07-30T10:25:44.274Z,292
2022-07-30T10:26:53.450Z,292
2022-07-30T10:28:01.651Z,298
2022-07-30T10:29:10.821Z,298
2022-07-30T10:30:19.978Z,298
2022-07-30T10:31:29.161Z,303
2022-07-30T10:32:38.357Z,315
2022-07-30T10:33:47.505Z,326
2022-07-30T10:34:56.681Z,337
2022-07-30T10:36:05.843Z,337
2022-07-30T10:37:15.020Z,331
2022-07-30T10:38:24.203Z,337
2022-07-30T10:39:33.376Z,343
2022-07-30T10:40:42.542Z,326
2022-07-30T10:41:51.731Z,326
2022-07-30T10:43:00.858Z,326
2022-07-30T10:44:09.075Z,213
2022-07-30T10:45:18.279Z,208
2022-07-30T10:46:27.419Z,208
2022-07-30T10:47:36.590Z,219
2022-07-30T10:48:45.781Z,298
2022-07-30T10:49:54.941Z,337
2022-07-30T10:51:04.107Z,343
2022-07-30T10:52:13.275Z,348
2022-07-30T10:53:22.473Z,348
2022-07-30T10:54:31.653Z,343
2022-07-30T10:55:40.819Z,354
2022-07-30T10:56:50.009Z,360
2022-07-30T10:57:58.176Z,365
2022-07-30T10:59:07.343Z,365
2022-07-30T11:00:16.504Z,360
2022-07-30T11:01:25.674Z,360
2022-07-30T11:02:34.888Z,365
2022-07-30T11:03:44.039Z,365
2022-07-30T11:04:53.241Z,376
2022-07-30T11:06:02.411Z,393
2022-07-30T11:07:11.546Z,410
2022-07-30T11:08:20.723Z,416
2022-07-30T11:09:29.923Z,405
2022-07-30T11:10:39.076Z,388
2022-07-30T11:12:57.415Z,258
2022-07-30T11:14:05.606Z,275
2022-07-30T11:15:14.768Z,270
2022-07-30T11:16:23.946Z,286
2022-07-30T11:17:33.120Z,371
2022-07-30T11:18:42.294Z,393
2022-07-30T11:19:51.568Z,388
2022-07-30T11:21:00.635Z,388
2022-07-30T11:22:08.823Z,382
2022-07-30T11:23:18.023Z,365
2022-07-30T11:24:27.172Z,393
2022-07-30T11:25:36.340Z,399
2022-07-30T11:26:45.522Z,410
2022-07-30T11:27:54.695Z,405
2022-07-30T11:29:03.896Z,393
2022-07-30T11:30:13.033Z,382
2022-07-30T11:31:22.207Z,331
2022-07-30T11:32:31.935Z,309
2022-07-30T11:33:40.549Z,286
2022-07-30T11:34:49.726Z,275
2022-07-30T11:35:58.916Z,365
2022-07-30T11:37:07.101Z,298
2022-07-30T11:38:16.260Z,405
2022-07-30T11:39:25.424Z,309
2022-07-30T11:40:34.600Z,371
2022-07-30T11:41:43.779Z,421
2022-07-30T11:42:52.944Z,410
2022-07-30T11:44:02.122Z,286
2022-07-30T11:45:11.306Z,298
2022-07-30T11:46:20.470Z,298
2022-07-30T11:47:29.653Z,309
2022-07-30T11:48:38.810Z,298
2022-07-30T11:49:47.996Z,309
2022-07-30T11:52:06.328Z,331
2022-07-30T11:53:15.508Z,326
2022-07-30T11:54:23.686Z,326
2022-07-30T11:55:32.891Z,455
2022-07-30T11:56:42.029Z,472
2022-07-30T11:57:51.210Z,466
2022-07-30T11:59:00.382Z,461
2022-07-30T12:00:09.555Z,461
2022-07-30T12:01:18.738Z,461
2022-07-30T12:02:27.899Z,472
2022-07-30T12:03:37.077Z,472
2022-07-30T12:04:46.248Z,495
2022-07-30T12:05:55.425Z,500
2022-07-30T12:07:04.583Z,483
2022-07-30T12:08:13.769Z,315
2022-07-30T12:09:21.952Z,315
2022-07-30T12:10:30.138Z,320
2022-07-30T12:11:38.333Z,320
2022-07-30T12:12:47.501Z,455
2022-07-30T12:13:56.677Z,483
2022-07-30T12:15:05.860Z,506
2022-07-30T12:16:15.014Z,360
2022-07-30T12:17:24.197Z,309
2022-07-30T12:18:33.368Z,523
2022-07-30T12:19:42.543Z,545
2022-07-30T12:20:51.715Z,433
2022-07-30T12:22:00.893Z,315
2022-07-30T12:23:10.070Z,551
2022-07-30T12:24:19.235Z,540
2022-07-30T12:25:28.413Z,410
2022-07-30T12:26:36.594Z,399
2022-07-30T12:27:45.771Z,309
2022-07-30T12:28:54.937Z,309
2022-07-30T12:30:04.107Z,309
2022-07-30T12:31:13.281Z,320
2022-07-30T12:32:22.451Z,354
2022-07-30T12:33:31.658Z,562
2022-07-30T12:34:39.823Z,579
2022-07-30T12:35:48.017Z,607
2022-07-30T12:36:57.193Z,607
2022-07-30T12:38:05.445Z,618
2022-07-30T12:39:13.566Z,365
2022-07-30T12:40:22.745Z,393
2022-07-30T12:41:31.925Z,624
2022-07-30T12:42:41.089Z,585
2022-07-30T12:43:50.263Z,585
2022-07-30T12:44:59.438Z,573
2022-07-30T12:46:08.603Z,360
2022-07-30T12:47:17.776Z,354
2022-07-30T12:48:26.953Z,382
2022-07-30T12:49:36.121Z,585
2022-07-30T12:50:45.287Z,579
2022-07-30T12:51:54.461Z,382
2022-07-30T12:53:03.643Z,376
2022-07-30T12:54:11.863Z,376
2022-07-30T12:55:21.005Z,450
2022-07-30T12:56:30.179Z,545
2022-07-30T12:57:39.358Z,646
2022-07-30T12:58:48.535Z,646
2022-07-30T12:59:57.692Z,669
2022-07-30T13:01:06.873Z,793
2022-07-30T13:02:16.051Z,742
2022-07-30T13:03:25.211Z,365
2022-07-30T13:04:34.387Z,1035
2022-07-30T13:05:43.568Z,1001
2022-07-30T13:06:52.740Z,990
2022-07-30T13:08:01.908Z,1068
2022-07-30T13:09:10.084Z,1029
2022-07-30T13:10:19.263Z,1108
2022-07-30T13:11:28.439Z,1237
2022-07-30T13:12:37.618Z,1035
2022-07-30T13:13:46.785Z,1203
2022-07-30T13:14:55.955Z,1811
2022-07-30T13:16:05.135Z,849
2022-07-30T13:17:14.296Z,1305
2022-07-30T13:18:23.481Z,1023
2022-07-30T13:19:32.641Z,973
2022-07-30T13:20:41.811Z,787
2022-07-30T13:21:50.993Z,725
2022-07-30T13:23:00.168Z,708
2022-07-30T13:24:08.358Z,703
2022-07-30T13:25:17.532Z,697
2022-07-30T13:26:26.701Z,691
2022-07-30T13:27:35.879Z,669
2022-07-30T13:28:45.052Z,635
2022-07-30T13:29:54.223Z,641
2022-07-30T13:31:03.407Z,478
2022-07-30T13:32:12.564Z,489
2022-07-30T13:33:21.726Z,652
2022-07-30T13:34:30.909Z,995
2022-07-30T13:35:40.078Z,753
2022-07-30T13:36:49.244Z,1096
2022-07-30T13:37:58.429Z,1524
2022-07-30T13:39:06.616Z,1693
2022-07-30T13:40:15.796Z,1243
2022-07-30T13:41:24.965Z,1051
2022-07-30T13:42:34.138Z,1524
2022-07-30T13:43:43.304Z,1563
2022-07-30T13:46:01.647Z,1636
2022-07-30T13:47:10.831Z,1642
2022-07-30T13:48:19.999Z,1642
2022-07-30T13:49:29.167Z,1867
2022-07-30T13:50:38.344Z,1434
2022-07-30T13:51:47.514Z,1884
2022-07-30T13:52:56.688Z,1693
2022-07-30T13:54:04.879Z,1440
2022-07-30T13:55:14.049Z,1518
2022-07-30T13:56:23.224Z,1473
2022-07-30T13:57:32.391Z,1501
2022-07-30T13:58:41.575Z,1546
2022-07-30T13:59:50.746Z,1389
2022-07-30T14:00:59.933Z,1383
2022-07-30T14:02:09.085Z,1636
2022-07-30T14:03:18.280Z,1642
2022-07-30T14:04:27.438Z,1794
2022-07-30T14:05:36.612Z,1715
2022-07-30T14:07:54.964Z,2171
2022-07-30T14:09:03.144Z,2126
2022-07-30T14:10:12.317Z,1698
2022-07-30T14:11:21.484Z,1890
2022-07-30T14:12:30.657Z,1704
2022-07-30T14:13:39.839Z,1890
2022-07-30T14:14:49.000Z,1845
2022-07-30T14:15:58.182Z,1794
2022-07-30T14:17:07.351Z,1738
2022-07-30T14:18:16.540Z,1811
2022-07-30T14:19:25.692Z,1642
2022-07-30T14:20:34.864Z,1704
2022-07-30T14:21:44.034Z,1681
2022-07-30T14:22:53.207Z,1665
2022-07-30T14:24:01.396Z,1383
2022-07-30T14:25:10.573Z,1113
2022-07-30T14:26:19.742Z,1080
2022-07-30T14:27:28.923Z,1226
2022-07-30T14:28:38.087Z,1445
2022-07-30T14:29:47.275Z,1642
2022-07-30T14:30:56.447Z,1771
2022-07-30T14:32:05.604Z,1496
2022-07-30T14:33:14.776Z,1541
2022-07-30T14:34:23.980Z,1507
2022-07-30T14:35:33.140Z,1681
2022-07-30T14:36:42.307Z,1676
2022-07-30T14:37:51.474Z,1957
2022-07-30T14:38:59.665Z,2131
2022-07-30T14:40:08.837Z,1946
2022-07-30T14:41:18.028Z,1951
2022-07-30T14:42:27.185Z,1895
2022-07-30T14:43:36.351Z,1884
2022-07-30T14:44:45.522Z,1665
2022-07-30T14:45:54.707Z,1963
2022-07-30T14:47:03.874Z,1861
2022-07-30T14:48:13.046Z,2047
2022-07-30T14:49:22.227Z,2098
2022-07-30T14:50:31.384Z,2126
2022-07-30T14:51:40.552Z,2244
2022-07-30T14:52:49.732Z,2075
2022-07-30T14:53:57.918Z,2109
2022-07-30T14:55:07.104Z,2081
2022-07-30T14:56:16.268Z,1906
2022-07-30T14:57:25.445Z,1985
2022-07-30T14:58:34.611Z,2098
2022-07-30T14:59:43.782Z,1738
2022-07-30T15:00:52.957Z,1867
2022-07-30T15:02:02.134Z,2131
2022-07-30T15:03:11.299Z,2008
2022-07-30T15:04:20.477Z,1681
2022-07-30T15:05:29.663Z,2081
2022-07-30T15:06:38.822Z,1895
2022-07-30T15:07:48.007Z,1839
2022-07-30T15:08:56.184Z,1507
2022-07-30T15:10:05.358Z,1591
2022-07-30T15:11:14.525Z,2160
2022-07-30T15:12:23.715Z,2025
2022-07-30T15:13:31.908Z,1766
2022-07-30T15:14:41.074Z,1867
2022-07-30T15:15:50.262Z,1636
2022-07-30T15:16:59.422Z,1884
2022-07-30T15:19:17.768Z,1816
2022-07-30T15:20:26.979Z,1828
2022-07-30T15:21:36.106Z,1845
2022-07-30T15:22:45.280Z,1918
2022-07-30T15:23:54.457Z,1867
2022-07-30T15:25:03.630Z,1766
2022-07-30T15:26:12.810Z,2199
2022-07-30T15:27:21.975Z,1800
2022-07-30T15:28:30.170Z,1794
2022-07-30T15:29:39.335Z,1541
2022-07-30T15:30:48.509Z,1620
2022-07-30T15:31:57.681Z,1901
2022-07-30T15:33:06.863Z,1912
2022-07-30T15:34:16.029Z,2188
2022-07-30T15:35:25.198Z,1760
2022-07-30T15:36:34.371Z,2176
2022-07-30T15:37:43.580Z,2283
2022-07-30T15:38:52.723Z,2193
2022-07-30T15:40:01.902Z,1996
2022-07-30T15:41:11.072Z,2070
2022-07-30T15:42:20.237Z,2362
2022-07-30T15:43:29.413Z,2390
2022-07-30T15:44:37.598Z,2576
2022-07-30T15:45:46.791Z,2548
2022-07-30T15:46:55.955Z,2446
2022-07-30T15:48:05.113Z,2542
2022-07-30T15:49:14.301Z,2351
2022-07-30T15:50:23.472Z,2328
2022-07-30T15:51:32.637Z,2340
2022-07-30T15:52:41.810Z,2385
2022-07-30T15:53:50.991Z,2379
2022-07-30T15:55:00.165Z,2221
2022-07-30T15:56:09.333Z,1012
2022-07-30T15:57:18.506Z,348
2022-07-30T15:58:27.675Z,331
2022-07-30T15:59:35.869Z,815
2022-07-30T16:00:45.055Z,585
2022-07-30T16:01:54.216Z,562
2022-07-30T16:03:03.410Z,838
2022-07-30T16:04:12.568Z,1395
2022-07-30T16:05:21.730Z,1991
2022-07-30T16:06:30.904Z,2086
2022-07-30T16:07:40.073Z,888
2022-07-30T16:08:49.249Z,354
2022-07-30T16:09:58.417Z,2160
2022-07-30T16:11:07.592Z,2688
2022-07-30T16:12:16.768Z,2581
2022-07-30T16:13:25.946Z,2356
2022-07-30T16:14:34.145Z,2401